Time;durP1;ratioP1;P1;durP2;ratioP2;P2;SDS_P1;SDS_P2;PMS_P1;PMS_P2;Temp;Humidity;BMP_temperature;BMP_pressure;BME280_temperature;BME280_humidity;BME280_pressure;Samples;Min_cycle;Max_cycle;Signal;HPM_P1;HPM_P2
2022/05/14 00:02:03;;;;;;;31.65;12.68;;;8.80;99.90;;;;;;5168629;28;20085;-67
2022/05/14 00:04:34;;;;;;;34.53;15.23;;;9.20;99.90;;;;;;5168489;28;20054;-66
2022/05/14 00:07:05;;;;;;;35.40;15.80;;;9.20;99.90;;;;;;5168484;28;20025;-67
2022/05/14 00:09:36;;;;;;;37.88;16.05;;;9.50;99.90;;;;;;5168420;28;20105;-72
2022/05/14 00:14:57;;;;;;;37.53;15.88;;;8.90;99.90;;;;;;5168706;28;20126;-67
2022/05/14 00:17:27;;;;;;;46.35;17.85;;;8.80;99.90;;;;;;5168299;28;20109;-69
2022/05/14 00:19:58;;;;;;;47.40;18.67;;;8.60;99.90;;;;;;5168236;28;20454;-67
2022/05/14 00:22:29;;;;;;;48.58;18.98;;;8.50;99.90;;;;;;5168038;28;20042;-68
2022/05/14 00:25:00;;;;;;;46.50;18.75;;;9.00;99.90;;;;;;5168029;28;20034;-67
2022/05/14 00:27:31;;;;;;;41.60;16.73;;;9.20;99.90;;;;;;5168113;28;20053;-67
2022/05/14 00:30:02;;;;;;;43.55;17.77;;;9.20;99.90;;;;;;5168036;28;20061;-67
2022/05/14 00:32:33;;;;;;;43.00;17.55;;;8.90;99.90;;;;;;5167954;28;20033;-71
2022/05/14 00:35:04;;;;;;;45.42;20.00;;;8.80;99.90;;;;;;5168003;28;20027;-71
2022/05/14 00:37:36;;;;;;;42.97;17.67;;;8.70;99.90;;;;;;5167897;28;20536;-67
2022/05/14 00:40:15;;;;;;;52.85;18.80;;;8.80;99.90;;;;;;5167851;28;20022;-72
2022/05/14 00:42:45;;;;;;;48.20;21.10;;;8.70;99.90;;;;;;5167557;28;20482;-72
2022/05/14 00:45:17;;;;;;;51.15;20.38;;;8.90;99.90;;;;;;5167839;28;20042;-67
2022/05/14 00:47:51;;;;;;;46.45;20.05;;;8.90;99.90;;;;;;5167752;28;20065;-69
2022/05/14 00:50:31;;;;;;;47.45;20.33;;;8.80;99.90;;;;;;5167534;28;20018;-67
2022/05/14 00:53:09;;;;;;;50.83;18.40;;;8.60;99.90;;;;;;5167305;28;20455;-72
2022/05/14 00:55:42;;;;;;;51.97;19.42;;;8.90;99.90;;;;;;5167361;28;20034;-71
2022/05/14 00:58:42;;;;;;;45.50;19.90;;;8.90;99.90;;;;;;5167508;28;20402;-67
2022/05/14 01:01:13;;;;;;;;;;;8.50;99.90;;;;;;5167823;28;20031;-67
2022/05/14 01:03:44;;;;;;;44.95;20.25;;;8.30;99.90;;;;;;5167104;28;20313;-71
2022/05/14 01:06:19;;;;;;;54.10;20.52;;;8.50;99.90;;;;;;5167446;28;20030;-71
2022/05/14 01:08:49;;;;;;;50.72;20.70;;;8.70;99.90;;;;;;5167382;28;20374;-67
2022/05/14 01:11:21;;;;;;;47.35;20.10;;;8.80;99.90;;;;;;5167228;28;20014;-67
2022/05/14 01:13:51;;;;;;;57.70;23.85;;;8.50;99.90;;;;;;5167130;28;20037;-67
2022/05/14 01:16:23;;;;;;;49.03;21.17;;;8.40;99.90;;;;;;5167110;28;20466;-67
2022/05/14 01:18:54;;;;;;;46.83;20.38;;;8.20;99.90;;;;;;5167150;28;20078;-66
2022/05/14 01:21:52;;;;;;;46.10;20.67;;;8.70;99.90;;;;;;5166691;28;20478;-67
2022/05/14 01:27:42;;;;;;;43.53;18.52;;;8.10;99.90;;;;;;5167232;28;20030;-67
2022/05/14 01:30:14;;;;;;;44.97;20.20;;;8.50;99.90;;;;;;5166620;28;20088;-68
2022/05/14 01:32:46;;;;;;;42.70;18.98;;;8.50;99.90;;;;;;5166827;28;20084;-67
2022/05/14 01:35:17;;;;;;;52.95;20.77;;;8.90;99.90;;;;;;5166926;28;20033;-67
2022/05/14 01:37:48;;;;;;;57.35;23.85;;;9.20;99.90;;;;;;5166774;28;20023;-71
2022/05/14 01:40:19;;;;;;;51.42;21.73;;;9.40;99.90;;;;;;5166724;28;20030;-70
2022/05/14 01:42:49;;;;;;;55.15;22.10;;;9.10;99.90;;;;;;5166562;28;20399;-67
2022/05/14 01:45:20;;;;;;;46.15;19.23;;;8.80;99.90;;;;;;5166651;28;20362;-67
2022/05/14 01:47:51;;;;;;;51.38;21.02;;;8.30;99.90;;;;;;5166902;28;20029;-67
2022/05/14 01:50:22;;;;;;;49.45;20.35;;;8.80;99.90;;;;;;5166552;28;20073;-71
2022/05/14 01:53:01;;;;;;;57.08;21.25;;;9.40;99.90;;;;;;5167063;28;20046;-67
2022/05/14 01:55:41;;;;;;;47.35;18.95;;;9.60;99.90;;;;;;5167422;28;20030;-67
2022/05/14 02:01:36;;;;;;;41.72;19.17;;;8.60;99.90;;;;;;5167625;28;20061;-67
2022/05/14 02:04:11;;;;;;;42.72;20.00;;;8.30;99.90;;;;;;5166839;28;20041;-71
2022/05/14 02:06:43;;;;;;;44.00;20.67;;;7.90;99.90;;;;;;5166327;28;20114;-66
2022/05/14 02:09:15;;;;;;;41.65;18.95;;;8.50;99.90;;;;;;5166219;28;20026;-71
2022/05/14 02:11:46;;;;;;;44.55;19.73;;;8.70;99.90;;;;;;5166270;28;20018;-67
2022/05/14 02:14:16;;;;;;;46.25;18.92;;;8.20;99.90;;;;;;5166265;28;20037;-67
2022/05/14 02:16:47;;;;;;;39.20;18.70;;;8.20;99.90;;;;;;5166109;28;20050;-70
2022/05/14 02:19:18;;;;;;;42.50;17.98;;;8.20;99.90;;;;;;5166015;28;20413;-67
2022/05/14 02:21:49;;;;;;;42.40;19.15;;;8.30;99.90;;;;;;5165875;28;20046;-67
2022/05/14 02:24:20;;;;;;;39.83;18.88;;;8.10;99.90;;;;;;5165852;28;20018;-67
2022/05/14 02:26:51;;;;;;;40.58;18.85;;;8.20;99.90;;;;;;5166215;28;20030;-71
2022/05/14 02:29:21;;;;;;;49.72;21.95;;;8.50;99.90;;;;;;5166250;28;20022;-71
2022/05/14 02:31:52;;;;;;;46.70;21.02;;;8.90;99.90;;;;;;5166159;28;20370;-72
2022/05/14 02:34:23;;;;;;;46.78;20.48;;;8.90;99.90;;;;;;5166168;28;20057;-71
2022/05/14 02:36:54;;;;;;;50.60;20.50;;;9.20;99.90;;;;;;5166076;28;20047;-72
2022/05/14 02:39:24;;;;;;;47.35;19.75;;;9.00;99.90;;;;;;5165974;28;20022;-71
2022/05/14 02:41:55;;;;;;;44.88;19.98;;;8.90;99.90;;;;;;5165932;28;20117;-71
2022/05/14 02:44:26;;;;;;;36.33;17.15;;;9.40;99.90;;;;;;5169406;28;20489;-66
2022/05/14 02:46:57;;;;;;;37.92;17.98;;;9.50;99.90;;;;;;5168861;28;20026;-66
2022/05/14 02:49:28;;;;;;;40.85;18.95;;;9.30;99.90;;;;;;5170014;28;20057;-68
2022/05/14 02:51:58;;;;;;;39.35;17.88;;;9.40;99.90;;;;;;5169601;28;20050;-67
2022/05/14 02:54:29;;;;;;;37.22;17.42;;;9.90;99.90;;;;;;5169836;28;20026;-67
2022/05/14 02:57:00;;;;;;;34.70;15.75;;;9.90;99.90;;;;;;5169990;28;20041;-67
2022/05/14 02:59:31;;;;;;;44.42;18.83;;;9.80;99.90;;;;;;5169733;28;20034;-67
2022/05/14 03:02:03;;;;;;;40.30;16.13;;;9.60;99.90;;;;;;5169704;28;20434;-67
2022/05/14 03:04:37;;;;;;;41.90;18.55;;;9.80;99.90;;;;;;5169865;28;20022;-67
2022/05/14 03:07:10;;;;;;;40.85;17.45;;;9.90;99.90;;;;;;5169585;28;20056;-71
2022/05/14 03:09:42;;;;;;;40.42;17.50;;;9.80;99.90;;;;;;5169565;28;20018;-67
2022/05/14 03:12:14;;;;;;;39.33;15.88;;;9.70;99.90;;;;;;5169502;28;20029;-67
2022/05/14 03:14:45;;;;;;;36.38;15.30;;;10.00;99.90;;;;;;5169453;28;20348;-67
2022/05/14 03:17:16;;;;;;;36.22;15.80;;;9.90;99.90;;;;;;5169445;28;20034;-67
2022/05/14 03:19:47;;;;;;;31.25;15.90;;;9.80;99.90;;;;;;5169401;28;20026;-71
2022/05/14 03:22:19;;;;;;;32.40;14.93;;;10.00;99.90;;;;;;5168898;28;20050;-67
2022/05/14 03:24:51;;;;;;;28.60;15.02;;;10.00;99.90;;;;;;5169333;28;20513;-68
2022/05/14 03:27:21;;;;;;;32.88;15.57;;;10.10;99.90;;;;;;5169242;28;20026;-67
2022/05/14 03:29:54;;;;;;;35.88;15.95;;;9.90;99.90;;;;;;5169283;28;20029;-67
2022/05/14 03:32:26;;;;;;;34.97;15.60;;;9.70;99.90;;;;;;5169048;28;20018;-69
2022/05/14 03:34:58;;;;;;;31.05;16.00;;;9.50;99.90;;;;;;5169168;28;20153;-72
2022/05/14 03:37:30;;;;;;;35.20;15.13;;;9.80;99.90;;;;;;5168923;28;20026;-66
2022/05/14 03:40:02;;;;;;;28.67;14.55;;;10.30;99.90;;;;;;5168992;28;20095;-68
2022/05/14 03:42:33;;;;;;;34.55;14.90;;;10.30;99.90;;;;;;5168760;28;20397;-67
2022/05/14 03:45:04;;;;;;;30.15;14.48;;;10.20;99.90;;;;;;5169090;28;20027;-67
2022/05/14 03:47:36;;;;;;;30.55;14.48;;;10.30;99.90;;;;;;5168971;28;20031;-71
2022/05/14 03:50:07;;;;;;;27.88;13.13;;;10.40;99.90;;;;;;5168922;28;20026;-67
2022/05/14 03:52:38;;;;;;;29.25;14.27;;;10.80;99.90;;;;;;5168381;28;20052;-67
2022/05/14 03:55:09;;;;;;;27.05;13.25;;;11.10;99.90;;;;;;5168232;28;20022;-67
2022/05/14 03:57:39;;;;;;;27.55;13.30;;;11.20;99.90;;;;;;5168599;28;20026;-67
2022/05/14 04:00:11;;;;;;;29.48;13.90;;;11.20;99.90;;;;;;5168724;28;20032;-67
2022/05/14 04:02:42;;;;;;;30.58;13.35;;;11.50;99.90;;;;;;5168599;28;20057;-71
2022/05/14 04:05:14;;;;;;;38.00;15.73;;;11.50;99.90;;;;;;5168671;28;20026;-67
2022/05/14 04:07:46;;;;;;;29.10;14.07;;;11.00;99.90;;;;;;5168582;28;20026;-67
2022/05/14 04:10:17;;;;;;;34.60;15.77;;;11.40;99.90;;;;;;5168284;28;20030;-69
2022/05/14 04:12:48;;;;;;;35.00;14.88;;;11.30;99.90;;;;;;5168360;28;20030;-71
2022/05/14 04:15:19;;;;;;;37.58;15.45;;;11.40;99.90;;;;;;5168326;28;20108;-71
2022/05/14 04:17:51;;;;;;;29.85;14.23;;;11.60;99.90;;;;;;5168241;28;20038;-67
2022/05/14 04:20:22;;;;;;;33.35;15.23;;;11.90;99.90;;;;;;5168184;28;20118;-69
2022/05/14 04:22:53;;;;;;;33.47;15.20;;;12.30;99.90;;;;;;5168028;28;20041;-72
2022/05/14 04:25:24;;;;;;;30.00;15.02;;;12.30;99.90;;;;;;5168291;28;20030;-68
2022/05/14 04:27:55;;;;;;;36.53;15.55;;;12.40;99.90;;;;;;5168204;28;20026;-71
2022/05/14 04:30:26;;;;;;;43.83;17.38;;;12.50;99.90;;;;;;5168123;28;20045;-70
2022/05/14 04:32:57;;;;;;;37.03;15.95;;;12.40;99.90;;;;;;5166704;28;20497;-71
2022/05/14 04:35:28;;;;;;;36.50;15.95;;;12.80;99.90;;;;;;5167926;28;20030;-71
2022/05/14 04:37:59;;;;;;;43.75;17.52;;;13.10;99.90;;;;;;5167967;28;20030;-67
2022/05/14 04:40:30;;;;;;;33.47;16.40;;;13.30;99.90;;;;;;5168001;28;20038;-66
2022/05/14 04:43:04;;;;;;;32.72;16.80;;;13.30;99.90;;;;;;5167602;28;20500;-71
2022/05/14 04:45:35;;;;;;;33.72;16.60;;;13.50;99.90;;;;;;5167610;28;20029;-70
2022/05/14 04:48:06;;;;;;;35.38;16.95;;;13.30;99.90;;;;;;5167585;28;20036;-67
2022/05/14 04:50:38;;;;;;;35.60;16.65;;;13.40;99.90;;;;;;5167735;28;20037;-67
2022/05/14 04:53:09;;;;;;;38.75;17.05;;;13.50;99.90;;;;;;5167483;28;20050;-71
2022/05/14 04:55:40;;;;;;;34.78;17.40;;;13.90;99.90;;;;;;5168904;28;20451;-71
2022/05/14 04:58:11;;;;;;;40.13;17.42;;;14.00;99.90;;;;;;5167602;28;20030;-71
2022/05/14 05:00:42;;;;;;;44.90;18.77;;;14.30;99.90;;;;;;5167447;28;20029;-72
2022/05/14 05:03:23;;;;;;;38.67;17.70;;;14.90;99.90;;;;;;5167285;28;20038;-72
2022/05/14 05:05:57;;;;;;;34.60;15.98;;;15.10;99.90;;;;;;5166593;28;20034;-71
2022/05/14 05:08:31;;;;;;;30.85;15.23;;;15.40;99.90;;;;;;5167214;28;20030;-68
2022/05/14 05:11:03;;;;;;;31.92;15.02;;;15.50;99.90;;;;;;5167347;28;20026;-71
2022/05/14 05:13:35;;;;;;;37.17;14.95;;;15.70;99.90;;;;;;5167241;28;20026;-71
2022/05/14 05:16:06;;;;;;;25.27;13.98;;;16.00;99.90;;;;;;5167278;28;20057;-71
2022/05/14 05:18:37;;;;;;;30.60;14.57;;;16.40;99.90;;;;;;5167023;28;20026;-71
2022/05/14 05:21:08;;;;;;;27.42;13.55;;;16.60;99.90;;;;;;5166791;28;20031;-70
2022/05/14 05:23:39;;;;;;;30.23;13.77;;;16.70;99.90;;;;;;5166817;28;20125;-71
2022/05/14 05:26:10;;;;;;;29.15;14.70;;;16.90;99.90;;;;;;5167258;28;20022;-71
2022/05/14 05:28:41;;;;;;;32.53;18.75;;;17.00;99.90;;;;;;5176049;28;20113;-71
2022/05/14 05:31:12;;;;;;;28.58;15.50;;;17.40;99.90;;;;;;5175743;28;20026;-71
2022/05/14 05:33:43;;;;;;;26.10;12.88;;;17.80;99.90;;;;;;5180125;28;20029;-72
2022/05/14 05:36:13;;;;;;;25.02;11.88;;;18.20;99.90;;;;;;5187174;28;20038;-71
2022/05/14 05:38:44;;;;;;;24.40;12.48;;;18.50;99.90;;;;;;5187118;28;20022;-67
2022/05/14 05:41:15;;;;;;;19.67;12.05;;;18.50;99.90;;;;;;5178829;28;20049;-69
2022/05/14 05:43:46;;;;;;;25.73;12.00;;;18.80;99.90;;;;;;5186057;28;20029;-69
2022/05/14 05:46:17;;;;;;;23.13;12.07;;;19.20;99.90;;;;;;5186437;28;20045;-67
2022/05/14 05:48:48;;;;;;;19.77;10.93;;;19.10;99.90;;;;;;5185865;28;20030;-68
2022/05/14 05:51:21;;;;;;;19.63;11.18;;;19.30;99.90;;;;;;5186456;28;20038;-68
2022/05/14 05:56:47;;;;;;;19.60;11.77;;;19.30;99.90;;;;;;5200656;28;20033;-68
2022/05/14 05:59:19;;;;;;;21.55;10.98;;;19.50;99.90;;;;;;5206054;28;20083;-69
2022/05/14 06:01:53;;;;;;;15.75;9.32;;;19.80;99.90;;;;;;5182386;28;20056;-69
2022/05/14 06:04:24;;;;;;;16.13;8.63;;;19.90;99.90;;;;;;5186574;28;20076;-73
2022/05/14 06:06:55;;;;;;;16.48;6.75;;;20.20;99.90;;;;;;5186419;28;20025;-69
2022/05/14 06:09:29;;;;;;;14.32;7.70;;;20.30;99.90;;;;;;5202958;28;20025;-68
2022/05/14 06:12:00;;;;;;;10.52;6.35;;;20.50;99.90;;;;;;5190563;28;20515;-69
2022/05/14 06:14:31;;;;;;;11.93;6.28;;;20.60;99.90;;;;;;5186095;28;20112;-70
2022/05/14 06:17:02;;;;;;;13.93;5.25;;;20.70;99.90;;;;;;5186347;28;20025;-68
2022/05/14 06:19:33;;;;;;;12.02;5.70;;;20.80;99.90;;;;;;5186085;28;20366;-69
2022/05/14 06:22:04;;;;;;;9.63;5.20;;;20.80;99.90;;;;;;5205438;28;20049;-74
2022/05/14 06:24:39;;;;;;;11.23;5.00;;;20.80;99.90;;;;;;5205207;28;20025;-69
2022/05/14 06:27:10;;;;;;;16.33;5.20;;;21.10;99.90;;;;;;5206635;28;20025;-76
2022/05/14 06:29:40;;;;;;;10.85;4.93;;;21.40;99.90;;;;;;5206814;28;20075;-76
2022/05/14 06:32:11;;;;;;;11.75;5.32;;;21.40;99.90;;;;;;5206614;28;20042;-76
2022/05/14 06:34:42;;;;;;;10.30;4.72;;;21.50;99.90;;;;;;5206564;28;20101;-76
2022/05/14 06:37:13;;;;;;;10.55;4.28;;;21.60;99.90;;;;;;5206706;28;20065;-75
2022/05/14 06:39:44;;;;;;;7.00;3.65;;;21.90;99.90;;;;;;5206442;28;20022;-74
2022/05/14 06:42:14;;;;;;;8.80;3.78;;;22.20;99.90;;;;;;5206185;28;20343;-76
2022/05/14 06:44:45;;;;;;;7.60;3.72;;;21.90;93.80;;;;;;5206427;28;20112;-76
2022/05/14 06:47:16;;;;;;;10.07;4.00;;;22.00;91.60;;;;;;5206487;28;20029;-72
2022/05/14 06:49:47;;;;;;;6.57;3.70;;;22.40;89.20;;;;;;5205918;28;20040;-76
2022/05/14 06:52:19;;;;;;;9.35;3.72;;;22.30;85.50;;;;;;5206336;28;20084;-76
2022/05/14 06:54:52;;;;;;;9.25;3.50;;;22.40;84.20;;;;;;5206374;28;20057;-75
2022/05/14 06:57:23;;;;;;;9.07;2.88;;;22.60;82.70;;;;;;5206451;28;20030;-76
2022/05/14 06:59:54;;;;;;;5.32;3.05;;;22.50;78.20;;;;;;5205263;28;20575;-70
2022/05/14 07:02:27;;;;;;;5.90;3.30;;;22.90;80.10;;;;;;5206181;28;20042;-71
2022/05/14 07:07:49;;;;;;;6.40;2.97;;;23.10;76.40;;;;;;5206622;28;20029;-75
2022/05/14 07:10:20;;;;;;;10.45;3.28;;;23.10;74.00;;;;;;5206163;28;20026;-76
2022/05/14 07:12:51;;;;;;;5.93;2.75;;;23.20;72.10;;;;;;5206174;28;20049;-70
2022/05/14 07:15:22;;;;;;;6.47;2.95;;;23.00;71.10;;;;;;5206008;28;20056;-76
2022/05/14 07:17:53;;;;;;;7.25;2.90;;;23.30;72.50;;;;;;5206090;28;20074;-72
2022/05/14 07:20:24;;;;;;;7.75;3.30;;;23.60;71.20;;;;;;5206052;28;20022;-70
2022/05/14 07:22:55;;;;;;;5.25;2.97;;;23.60;68.60;;;;;;5206052;28;20516;-75
2022/05/14 07:25:26;;;;;;;3.88;2.70;;;24.00;69.20;;;;;;5206014;28;20052;-75
2022/05/14 07:27:58;;;;;;;4.75;3.20;;;23.70;65.30;;;;;;5205863;28;20038;-74
2022/05/14 07:30:28;;;;;;;8.02;3.25;;;23.80;65.60;;;;;;5209292;28;20045;-76
2022/05/14 07:32:59;;;;;;;7.38;2.92;;;23.90;62.90;;;;;;5209662;28;20110;-76
2022/05/14 07:35:33;;;;;;;7.43;2.83;;;23.60;61.70;;;;;;5187281;28;20532;-76
2022/05/14 07:38:07;;;;;;;10.05;3.28;;;23.90;63.60;;;;;;5168849;28;20034;-73
2022/05/14 07:40:39;;;;;;;5.05;2.63;;;23.90;61.80;;;;;;5167408;28;20030;-77
2022/05/14 07:43:20;;;;;;;23.70;3.70;;;24.20;63.10;;;;;;5168429;28;20121;-77
2022/05/14 07:45:55;;;;;;;3.72;2.92;;;24.30;64.00;;;;;;5169734;28;20030;-77
2022/05/14 07:48:35;;;;;;;5.80;2.70;;;24.30;62.50;;;;;;5171731;28;20427;-76
2022/05/14 07:51:10;;;;;;;6.70;2.72;;;24.70;64.70;;;;;;5186986;28;20109;-76
2022/05/14 07:53:41;;;;;;;5.70;2.30;;;24.50;62.50;;;;;;5188828;28;20064;-76
2022/05/14 07:56:12;;;;;;;5.43;2.35;;;24.70;62.50;;;;;;5170746;28;20026;-76
2022/05/14 07:58:43;;;;;;;2.20;1.50;;;25.00;61.80;;;;;;5168585;28;20034;-76
2022/05/14 08:01:14;;;;;;;3.80;1.80;;;24.30;57.30;;;;;;5168376;28;20365;-76
2022/05/14 08:03:47;;;;;;;7.45;1.85;;;24.40;57.70;;;;;;5168014;28;20037;-74
2022/05/14 08:06:18;;;;;;;5.70;1.70;;;24.50;58.30;;;;;;5168894;28;20088;-70
2022/05/14 08:08:51;;;;;;;3.28;1.77;;;24.70;58.20;;;;;;5182127;28;20041;-76
2022/05/14 08:11:22;;;;;;;4.35;1.83;;;24.90;58.00;;;;;;5188618;28;20022;-76
2022/05/14 08:13:54;;;;;;;6.95;1.50;;;24.80;55.50;;;;;;5176724;28;20042;-76
2022/05/14 08:16:25;;;;;;;5.00;2.00;;;24.80;55.40;;;;;;5177182;28;20161;-76
2022/05/14 08:18:56;;;;;;;2.55;1.70;;;24.90;55.20;;;;;;5167356;28;20030;-76
2022/05/14 08:24:34;;;;;;;2.80;1.75;;;25.10;54.80;;;;;;5167656;28;20093;-71
2022/05/14 08:27:07;;;;;;;3.75;1.83;;;25.30;54.30;;;;;;5167797;28;20041;-69
2022/05/14 08:29:38;;;;;;;6.43;1.80;;;25.30;56.90;;;;;;5167767;28;20022;-73
2022/05/14 08:32:09;;;;;;;2.97;1.70;;;25.40;55.90;;;;;;5167823;28;20036;-70
2022/05/14 08:34:40;;;;;;;4.53;1.70;;;25.10;53.90;;;;;;5167007;28;20031;-70
2022/05/14 08:37:11;;;;;;;4.97;1.77;;;25.60;56.70;;;;;;5167415;28;20038;-75
2022/05/14 08:39:42;;;;;;;5.32;1.60;;;25.70;54.00;;;;;;5174358;28;20110;-76
2022/05/14 08:42:13;;;;;;;5.75;2.42;;;25.60;54.70;;;;;;5182564;28;20121;-70
2022/05/14 08:44:46;;;;;;;4.50;2.10;;;25.40;52.90;;;;;;5187882;28;20028;-74
2022/05/14 08:47:33;;;;;;;4.10;2.20;;;25.70;53.90;;;;;;5187932;28;20026;-70
2022/05/14 08:50:06;;;;;;;3.70;1.92;;;25.90;55.50;;;;;;5188008;28;20029;-69
2022/05/14 08:52:39;;;;;;;5.45;2.40;;;26.30;55.60;;;;;;5169803;28;20150;-69
2022/05/14 08:55:15;;;;;;;7.20;2.05;;;26.40;56.70;;;;;;5167620;28;20061;-69
2022/05/14 08:58:00;;;;;;;7.18;2.72;;;25.80;52.70;;;;;;5167469;28;20026;-68
2022/05/14 09:00:30;;;;;;;3.97;2.33;;;25.50;52.70;;;;;;5167564;28;20109;-74
2022/05/14 09:03:01;;;;;;;4.82;2.75;;;25.70;55.20;;;;;;5166000;28;20145;-68
2022/05/14 09:05:35;;;;;;;5.15;2.78;;;25.40;54.80;;;;;;5167303;28;20474;-73
2022/05/14 09:08:07;;;;;;;6.65;2.80;;;25.70;54.40;;;;;;5165927;28;20105;-75
2022/05/14 09:10:40;;;;;;;5.30;2.90;;;26.30;58.10;;;;;;5167323;28;20019;-75
2022/05/14 09:13:21;;;;;;;5.15;2.58;;;26.40;56.00;;;;;;5165910;28;20462;-68
2022/05/14 09:15:56;;;;;;;10.70;2.63;;;26.60;55.20;;;;;;5167153;28;20050;-74
2022/05/14 09:18:30;;;;;;;5.45;2.58;;;27.10;55.80;;;;;;5167169;28;20052;-71
2022/05/14 09:21:08;;;;;;;5.53;2.60;;;26.30;53.80;;;;;;5166844;28;20370;-76
2022/05/14 09:23:39;;;;;;;5.15;3.15;;;26.40;52.20;;;;;;5166916;28;20061;-70
2022/05/14 09:26:17;;;;;;;4.40;2.50;;;26.30;51.90;;;;;;5166912;28;20390;-70
2022/05/14 09:28:52;;;;;;;5.38;2.58;;;26.30;52.20;;;;;;5166962;28;20019;-71
2022/05/14 09:31:34;;;;;;;4.57;2.70;;;26.30;52.10;;;;;;5177839;28;20045;-72
2022/05/14 09:34:17;;;;;;;6.03;3.25;;;26.40;52.00;;;;;;5177395;28;20029;-76
2022/05/14 09:36:50;;;;;;;6.82;3.40;;;26.90;52.60;;;;;;5185454;28;20121;-77
2022/05/14 09:39:22;;;;;;;8.25;3.30;;;26.60;52.20;;;;;;5207036;28;20057;-70
2022/05/14 09:41:59;;;;;;;5.43;2.75;;;26.80;55.10;;;;;;5206994;28;20037;-71
2022/05/14 09:44:42;;;;;;;6.93;3.00;;;27.10;52.30;;;;;;5190391;28;20029;-76
2022/05/14 09:47:26;;;;;;;4.95;2.58;;;27.30;54.30;;;;;;5187227;28;20026;-75
2022/05/14 09:49:59;;;;;;;3.13;1.92;;;27.00;51.90;;;;;;5186706;28;20033;-71
2022/05/14 09:52:32;;;;;;;4.40;2.15;;;27.00;51.00;;;;;;5185903;28;20050;-74
2022/05/14 09:55:11;;;;;;;2.28;1.92;;;27.10;52.10;;;;;;5186898;28;20030;-70
2022/05/14 09:58:15;;;;;;;2.33;1.50;;;26.90;50.90;;;;;;5186735;28;20022;-74
2022/05/14 10:00:58;;;;;;;7.82;2.03;;;27.60;50.30;;;;;;5186407;28;20034;-74
2022/05/14 10:03:40;;;;;;;4.40;2.30;;;27.70;50.90;;;;;;5186809;28;20038;-70
2022/05/14 10:06:40;;;;;;;4.35;2.00;;;27.10;52.50;;;;;;5185549;28;20029;-71
2022/05/14 10:09:18;;;;;;;4.43;2.30;;;27.00;50.40;;;;;;5185608;28;20053;-71
2022/05/14 10:12:23;;;;;;;6.60;1.80;;;26.90;51.40;;;;;;5185672;28;20026;-74
2022/05/14 10:14:53;;;;;;;4.78;1.77;;;26.50;48.80;;;;;;5179136;28;20071;-74
2022/05/14 10:17:43;;;;;;;5.25;1.80;;;27.00;49.30;;;;;;5175370;28;20065;-76
2022/05/14 10:20:49;;;;;;;3.38;2.08;;;27.20;50.80;;;;;;5181998;28;20050;-71
2022/05/14 10:26:57;;;;;;;5.22;2.08;;;27.40;48.90;;;;;;5185787;28;20117;-76
2022/05/14 10:29:55;;;;;;;7.97;2.50;;;27.40;49.30;;;;;;5186163;28;20025;-69
2022/05/14 10:32:31;;;;;;;5.43;2.70;;;27.00;49.20;;;;;;5186118;28;20018;-71
2022/05/14 10:35:37;;;;;;;6.38;3.28;;;26.90;50.10;;;;;;5186195;28;20030;-77
2022/05/14 10:38:35;;;;;;;5.25;2.60;;;26.90;48.60;;;;;;5171373;28;20035;-69
2022/05/14 10:41:08;;;;;;;5.13;2.40;;;27.70;50.20;;;;;;5175083;28;20049;-75
2022/05/14 10:43:49;;;;;;;9.88;2.40;;;27.20;46.90;;;;;;5166769;28;20061;-70
2022/05/14 10:46:24;;;;;;;3.63;2.50;;;27.30;48.90;;;;;;5165909;28;20026;-69
2022/05/14 10:49:22;;;;;;;5.78;2.60;;;27.20;48.00;;;;;;5165667;28;20034;-68
2022/05/14 10:51:55;;;;;;;3.97;2.50;;;27.10;50.20;;;;;;5162934;28;20061;-69
2022/05/14 10:54:27;;;;;;;3.90;2.42;;;27.50;51.70;;;;;;5165541;28;20451;-77
2022/05/14 10:57:01;;;;;;;5.63;2.58;;;27.10;49.10;;;;;;5176985;28;20093;-76
2022/05/14 10:59:37;;;;;;;2.95;2.25;;;28.50;49.80;;;;;;5165936;28;20118;-68
2022/05/14 11:02:15;;;;;;;7.38;3.05;;;27.80;47.30;;;;;;5165590;28;20038;-69
2022/05/14 11:04:51;;;;;;;4.53;2.22;;;27.30;48.60;;;;;;5167868;28;20073;-68
2022/05/14 11:07:34;;;;;;;7.40;2.20;;;27.60;49.20;;;;;;5169513;28;20117;-69
2022/05/14 11:10:27;;;;;;;9.73;2.40;;;28.50;51.00;;;;;;5169389;28;20057;-68
2022/05/14 11:13:10;;;;;;;6.85;2.50;;;27.00;50.00;;;;;;5169477;28;20026;-69
2022/05/14 11:15:43;;;;;;;4.97;2.40;;;28.00;51.10;;;;;;5169803;28;20031;-76
2022/05/14 11:18:16;;;;;;;8.00;3.10;;;28.00;51.90;;;;;;5169483;28;20030;-75
2022/05/14 11:20:59;;;;;;;7.82;2.50;;;27.90;59.30;;;;;;5169360;28;20105;-69
2022/05/14 11:23:30;;;;;;;4.45;2.63;;;27.50;60.10;;;;;;5169137;28;20048;-76
2022/05/14 11:26:14;;;;;;;7.18;2.60;;;27.40;61.80;;;;;;5169316;28;20077;-76
2022/05/14 11:28:56;;;;;;;10.45;3.63;;;28.00;61.80;;;;;;5169262;28;20453;-69
2022/05/14 11:31:32;;;;;;;6.47;2.90;;;27.80;62.70;;;;;;5169174;28;20470;-68
2022/05/14 11:34:20;;;;;;;6.85;2.70;;;27.40;62.50;;;;;;5169010;28;20112;-75
2022/05/14 11:36:56;;;;;;;6.82;2.55;;;28.10;62.90;;;;;;5169146;28;20022;-76
2022/05/14 11:39:30;;;;;;;7.40;2.95;;;27.50;62.70;;;;;;5169029;28;20035;-69
2022/05/14 11:42:24;;;;;;;7.13;2.40;;;27.70;60.10;;;;;;5169178;28;20038;-69
2022/05/14 11:45:04;;;;;;;6.65;2.92;;;27.80;60.00;;;;;;5168988;28;20536;-69
2022/05/14 11:47:46;;;;;;;5.65;2.92;;;28.00;60.90;;;;;;5168879;28;20467;-68
2022/05/14 11:50:21;;;;;;;3.30;2.35;;;27.80;60.00;;;;;;5168971;28;20030;-69
2022/05/14 11:53:22;;;;;;;6.60;3.00;;;27.70;60.40;;;;;;5168484;28;20086;-69
2022/05/14 11:56:06;;;;;;;7.55;3.30;;;28.00;60.50;;;;;;5167499;28;20458;-68
2022/05/14 11:58:39;;;;;;;5.57;2.90;;;27.50;61.30;;;;;;5168653;28;20442;-68
2022/05/14 12:01:19;;;;;;;8.45;2.83;;;28.00;62.90;;;;;;5168537;28;20038;-68
2022/05/14 12:03:52;;;;;;;;;;;28.50;63.50;;;;;;5168802;28;20038;-68
2022/05/14 12:06:34;;;;;;;7.95;2.70;;;27.90;63.20;;;;;;5168435;28;19912;-69
2022/05/14 12:09:10;;;;;;;6.15;2.65;;;27.90;63.10;;;;;;5168437;28;20029;-72
2022/05/14 12:11:53;;;;;;;8.90;3.03;;;28.10;64.30;;;;;;5168285;28;20026;-69
2022/05/14 12:14:34;;;;;;;5.82;2.58;;;27.70;64.60;;;;;;5168126;28;20377;-69
2022/05/14 12:17:08;;;;;;;12.57;3.00;;;28.20;64.60;;;;;;5184024;28;20050;-76
2022/05/14 12:19:40;;;;;;;8.60;2.88;;;28.50;64.40;;;;;;5189862;28;20076;-73
2022/05/14 12:22:14;;;;;;;6.35;2.40;;;28.10;58.40;;;;;;5187592;28;20038;-69
2022/05/14 12:25:00;;;;;;;3.53;2.50;;;28.00;60.00;;;;;;5204133;28;20025;-69
2022/05/14 12:27:34;;;;;;;9.68;2.38;;;28.70;61.50;;;;;;5208473;28;20021;-69
2022/05/14 12:30:13;;;;;;;13.15;2.17;;;28.70;58.30;;;;;;5208264;28;20029;-68
2022/05/14 12:35:36;;;;;;;3.17;1.52;;;28.60;53.30;;;;;;5208943;28;20182;-76
2022/05/14 12:38:09;;;;;;;13.82;2.42;;;29.10;54.30;;;;;;5194226;28;20105;-75
2022/05/14 12:40:45;;;;;;;12.07;2.92;;;28.70;53.30;;;;;;5180845;28;20401;-76
2022/05/14 12:43:16;;;;;;;4.68;2.50;;;27.90;54.00;;;;;;5184246;28;20133;-71
2022/05/14 12:45:59;;;;;;;4.80;2.33;;;28.40;55.90;;;;;;5188420;28;20044;-70
2022/05/14 12:48:31;;;;;;;7.60;3.00;;;28.10;56.70;;;;;;5171674;28;20025;-69
2022/05/14 12:51:02;;;;;;;7.95;2.42;;;28.10;54.30;;;;;;5185891;28;20490;-76
2022/05/14 12:53:39;;;;;;;4.93;2.00;;;29.20;53.90;;;;;;5191507;28;20037;-75
2022/05/14 12:56:11;;;;;;;27.25;2.30;;;29.30;53.20;;;;;;5207936;28;20100;-74
2022/05/14 12:58:42;;;;;;;3.60;1.95;;;28.10;50.30;;;;;;5207983;28;20347;-75
2022/05/14 13:01:17;;;;;;;6.78;2.15;;;28.90;49.80;;;;;;5206174;28;20033;-76
2022/05/14 13:04:05;;;;;;;4.78;1.80;;;29.00;50.90;;;;;;5207719;28;20453;-76
2022/05/14 13:06:42;;;;;;;4.60;1.73;;;28.70;48.80;;;;;;5205860;28;20029;-68
2022/05/14 13:09:22;;;;;;;3.28;1.98;;;28.60;53.00;;;;;;5207762;28;20029;-70
2022/05/14 13:11:54;;;;;;;6.38;2.13;;;28.80;50.20;;;;;;5207689;28;20026;-69
2022/05/14 13:14:37;;;;;;;7.10;2.20;;;28.40;50.50;;;;;;5207839;28;20029;-70
2022/05/14 13:17:12;;;;;;;4.88;2.05;;;28.90;49.50;;;;;;5190739;28;20018;-69
2022/05/14 13:19:48;;;;;;;8.35;1.73;;;28.40;47.30;;;;;;5187189;28;20026;-69
2022/05/14 13:22:42;;;;;;;3.83;2.08;;;28.80;50.00;;;;;;5186794;28;20036;-69
2022/05/14 13:25:33;;;;;;;6.00;2.03;;;28.00;50.10;;;;;;5187251;28;20033;-77
2022/05/14 13:28:26;;;;;;;7.45;2.63;;;28.60;51.40;;;;;;5186455;28;20033;-69
2022/05/14 13:30:58;;;;;;;10.07;2.10;;;29.20;51.90;;;;;;5187004;28;20026;-69
2022/05/14 13:33:32;;;;;;;5.82;2.25;;;29.80;51.40;;;;;;5186557;28;20030;-69
2022/05/14 13:39:04;;;;;;;6.95;2.83;;;28.80;52.80;;;;;;5186781;28;20057;-69
2022/05/14 13:41:43;;;;;;;6.95;2.50;;;28.50;56.00;;;;;;5186760;28;20039;-75
2022/05/14 13:44:23;;;;;;;10.13;2.65;;;27.70;55.70;;;;;;5185358;28;20108;-68
2022/05/14 13:46:56;;;;;;;8.52;2.88;;;28.20;56.00;;;;;;5186735;28;20037;-68